sensor_id;sensor_type;location;lat;lon;timestamp;temperature;humidity
51637;DHT22;37713;53.254;6.460;2023-03-12T00:00:49;-1.40;99.90
51637;DHT22;37713;53.254;6.460;2023-03-12T00:03:16;-1.40;99.90
51637;DHT22;37713;53.254;6.460;2023-03-12T00:05:42;-1.40;99.90
51637;DHT22;37713;53.254;6.460;2023-03-12T00:08:09;-1.10;99.90
51637;DHT22;37713;53.254;6.460;2023-03-12T00:10:37;-1.40;99.90
51637;DHT22;37713;53.254;6.460;2023-03-12T00:13:03;-1.20;99.90
51637;DHT22;37713;53.254;6.460;2023-03-12T00:15:29;-1.30;99.90
51637;DHT22;37713;53.254;6.460;2023-03-12T00:17:55;-1.40;99.90
51637;DHT22;37713;53.254;6.460;2023-03-12T00:20:21;-0.40;99.90
51637;DHT22;37713;53.254;6.460;2023-03-12T00:22:51;-1.40;99.90
51637;DHT22;37713;53.254;6.460;2023-03-12T00:25:16;-1.40;99.90
51637;DHT22;37713;53.254;6.460;2023-03-12T00:27:43;-1.40;99.90
51637;DHT22;37713;53.254;6.460;2023-03-12T00:30:09;-1.40;99.90
51637;DHT22;37713;53.254;6.460;2023-03-12T00:32:36;-1.40;99.90
51637;DHT22;37713;53.254;6.460;2023-03-12T00:35:03;-1.50;99.90
51637;DHT22;37713;53.254;6.460;2023-03-12T00:37:29;-1.50;99.90
51637;DHT22;37713;53.254;6.460;2023-03-12T00:39:57;-1.50;99.90
51637;DHT22;37713;53.254;6.460;2023-03-12T00:42:23;-1.50;99.90
51637;DHT22;37713;53.254;6.460;2023-03-12T00:44:49;-1.50;99.90
51637;DHT22;37713;53.254;6.460;2023-03-12T00:47:15;-1.50;99.90
51637;DHT22;37713;53.254;6.460;2023-03-12T00:49:41;-1.50;99.90
51637;DHT22;37713;53.254;6.460;2023-03-12T00:52:07;-1.50;99.90
51637;DHT22;37713;53.254;6.460;2023-03-12T00:54:33;-1.50;99.90
51637;DHT22;37713;53.254;6.460;2023-03-12T00:56:58;-1.50;99.90
51637;DHT22;37713;53.254;6.460;2023-03-12T00:59:24;-1.50;99.90
51637;DHT22;37713;53.254;6.460;2023-03-12T01:01:50;-1.60;99.90
51637;DHT22;37713;53.254;6.460;2023-03-12T01:04:16;-1.60;99.90
51637;DHT22;37713;53.254;6.460;2023-03-12T01:06:42;-1.60;99.90
51637;DHT22;37713;53.254;6.460;2023-03-12T01:09:08;-1.60;99.90
51637;DHT22;37713;53.254;6.460;2023-03-12T01:11:35;-1.00;99.90
51637;DHT22;37713;53.254;6.460;2023-03-12T01:14:05;-1.60;99.90
51637;DHT22;37713;53.254;6.460;2023-03-12T01:16:31;-1.30;99.90
51637;DHT22;37713;53.254;6.460;2023-03-12T01:18:59;-1.60;99.90
51637;DHT22;37713;53.254;6.460;2023-03-12T01:21:27;-1.60;99.90
51637;DHT22;37713;53.254;6.460;2023-03-12T01:23:55;-1.60;99.90
51637;DHT22;37713;53.254;6.460;2023-03-12T01:26:21;-1.60;99.90
51637;DHT22;37713;53.254;6.460;2023-03-12T01:28:47;-1.30;99.90
51637;DHT22;37713;53.254;6.460;2023-03-12T01:31:15;-1.70;99.90
51637;DHT22;37713;53.254;6.460;2023-03-12T01:33:43;-1.70;99.90
51637;DHT22;37713;53.254;6.460;2023-03-12T01:36:35;-1.10;99.90
51637;DHT22;37713;53.254;6.460;2023-03-12T01:39:01;-1.70;99.90
51637;DHT22;37713;53.254;6.460;2023-03-12T01:41:28;-1.70;99.90
51637;DHT22;37713;53.254;6.460;2023-03-12T01:43:56;-1.70;99.90
51637;DHT22;37713;53.254;6.460;2023-03-12T01:46:35;-1.40;99.90
51637;DHT22;37713;53.254;6.460;2023-03-12T01:51:31;-1.60;99.90
51637;DHT22;37713;53.254;6.460;2023-03-12T01:54:00;-1.70;99.90
51637;DHT22;37713;53.254;6.460;2023-03-12T01:56:30;-1.60;99.90
51637;DHT22;37713;53.254;6.460;2023-03-12T01:58:59;-1.60;99.90
51637;DHT22;37713;53.254;6.460;2023-03-12T02:01:28;-1.60;99.90
51637;DHT22;37713;53.254;6.460;2023-03-12T02:03:55;-1.50;99.90
51637;DHT22;37713;53.254;6.460;2023-03-12T02:09:33;-1.40;99.90
51637;DHT22;37713;53.254;6.460;2023-03-12T02:12:00;-0.60;99.90
51637;DHT22;37713;53.254;6.460;2023-03-12T02:14:26;-1.30;99.90
51637;DHT22;37713;53.254;6.460;2023-03-12T02:16:53;-1.30;99.90
51637;DHT22;37713;53.254;6.460;2023-03-12T02:19:42;-1.20;99.90
51637;DHT22;37713;53.254;6.460;2023-03-12T02:22:10;-1.20;99.90
51637;DHT22;37713;53.254;6.460;2023-03-12T02:27:22;-1.10;99.90
51637;DHT22;37713;53.254;6.460;2023-03-12T02:29:48;-1.10;99.90
51637;DHT22;37713;53.254;6.460;2023-03-12T02:32:28;-1.10;99.90
51637;DHT22;37713;53.254;6.460;2023-03-12T02:34:58;-1.10;99.90
51637;DHT22;37713;53.254;6.460;2023-03-12T02:37:24;-1.10;99.90
51637;DHT22;37713;53.254;6.460;2023-03-12T02:40:05;-1.00;99.90
51637;DHT22;37713;53.254;6.460;2023-03-12T02:42:32;-1.00;99.90
51637;DHT22;37713;53.254;6.460;2023-03-12T02:44:59;-1.00;99.90
51637;DHT22;37713;53.254;6.460;2023-03-12T02:47:26;-0.90;99.90
51637;DHT22;37713;53.254;6.460;2023-03-12T02:49:51;-0.90;99.90
51637;DHT22;37713;53.254;6.460;2023-03-12T02:52:17;-0.20;99.90
51637;DHT22;37713;53.254;6.460;2023-03-12T02:54:43;-0.90;99.90
51637;DHT22;37713;53.254;6.460;2023-03-12T02:57:09;-0.80;99.90
51637;DHT22;37713;53.254;6.460;2023-03-12T02:59:34;-0.90;99.90
51637;DHT22;37713;53.254;6.460;2023-03-12T03:02:00;-0.50;99.90
51637;DHT22;37713;53.254;6.460;2023-03-12T03:04:28;-0.80;99.90
51637;DHT22;37713;53.254;6.460;2023-03-12T03:06:54;-0.80;99.90
51637;DHT22;37713;53.254;6.460;2023-03-12T03:09:20;-0.80;99.90
51637;DHT22;37713;53.254;6.460;2023-03-12T03:11:47;-0.50;99.90
51637;DHT22;37713;53.254;6.460;2023-03-12T03:14:13;-0.70;99.90
51637;DHT22;37713;53.254;6.460;2023-03-12T03:16:39;-0.70;99.90
51637;DHT22;37713;53.254;6.460;2023-03-12T03:19:05;-0.70;99.90
51637;DHT22;37713;53.254;6.460;2023-03-12T03:21:31;-0.60;99.90
51637;DHT22;37713;53.254;6.460;2023-03-12T03:23:57;-0.40;99.90
51637;DHT22;37713;53.254;6.460;2023-03-12T03:26:23;-0.60;99.90
51637;DHT22;37713;53.254;6.460;2023-03-12T03:28:50;-0.60;99.90
51637;DHT22;37713;53.254;6.460;2023-03-12T03:31:16;-0.50;99.90
51637;DHT22;37713;53.254;6.460;2023-03-12T03:33:42;-0.30;99.90
51637;DHT22;37713;53.254;6.460;2023-03-12T03:36:09;-0.20;99.90
51637;DHT22;37713;53.254;6.460;2023-03-12T03:38:35;-0.50;99.90
51637;DHT22;37713;53.254;6.460;2023-03-12T03:41:01;-0.50;99.90
51637;DHT22;37713;53.254;6.460;2023-03-12T03:43:28;-0.40;99.90
51637;DHT22;37713;53.254;6.460;2023-03-12T03:46:02;-0.40;99.90
51637;DHT22;37713;53.254;6.460;2023-03-12T03:48:28;-0.40;99.90
51637;DHT22;37713;53.254;6.460;2023-03-12T03:50:54;0.30;99.90
51637;DHT22;37713;53.254;6.460;2023-03-12T03:53:23;-0.40;99.90
51637;DHT22;37713;53.254;6.460;2023-03-12T03:55:49;-0.40;99.90
51637;DHT22;37713;53.254;6.460;2023-03-12T03:58:15;-0.30;99.90
51637;DHT22;37713;53.254;6.460;2023-03-12T04:00:43;0.30;99.90
51637;DHT22;37713;53.254;6.460;2023-03-12T04:03:09;-0.20;99.90
51637;DHT22;37713;53.254;6.460;2023-03-12T04:05:35;-0.20;99.90
51637;DHT22;37713;53.254;6.460;2023-03-12T04:08:01;-0.20;99.90
51637;DHT22;37713;53.254;6.460;2023-03-12T04:10:28;0.40;99.90
51637;DHT22;37713;53.254;6.460;2023-03-12T04:12:54;-0.10;99.90
51637;DHT22;37713;53.254;6.460;2023-03-12T04:15:21;-0.10;99.90
51637;DHT22;37713;53.254;6.460;2023-03-12T04:17:46;-0.10;99.90
51637;DHT22;37713;53.254;6.460;2023-03-12T04:20:12;0.40;99.90
51637;DHT22;37713;53.254;6.460;2023-03-12T04:22:38;-0.10;99.90
51637;DHT22;37713;53.254;6.460;2023-03-12T04:25:05;-0.10;99.90
51637;DHT22;37713;53.254;6.460;2023-03-12T04:27:33;-0.10;99.90
51637;DHT22;37713;53.254;6.460;2023-03-12T04:29:59;-0.10;99.90
51637;DHT22;37713;53.254;6.460;2023-03-12T04:32:25;-0.10;99.90
51637;DHT22;37713;53.254;6.460;2023-03-12T04:34:51;-0.10;99.90
51637;DHT22;37713;53.254;6.460;2023-03-12T04:37:16;-0.10;99.90
51637;DHT22;37713;53.254;6.460;2023-03-12T04:39:43;0.00;99.90
51637;DHT22;37713;53.254;6.460;2023-03-12T04:42:09;-0.10;99.90
51637;DHT22;37713;53.254;6.460;2023-03-12T04:44:35;0.00;99.90
51637;DHT22;37713;53.254;6.460;2023-03-12T04:47:01;0.00;99.90
51637;DHT22;37713;53.254;6.460;2023-03-12T04:49:27;0.00;99.90
51637;DHT22;37713;53.254;6.460;2023-03-12T04:51:53;0.10;99.90
51637;DHT22;37713;53.254;6.460;2023-03-12T04:54:19;0.00;99.90
51637;DHT22;37713;53.254;6.460;2023-03-12T04:56:46;0.00;99.90
51637;DHT22;37713;53.254;6.460;2023-03-12T04:59:12;-0.10;99.90
51637;DHT22;37713;53.254;6.460;2023-03-12T05:01:38;-0.10;99.90
51637;DHT22;37713;53.254;6.460;2023-03-12T05:04:04;0.30;99.90
51637;DHT22;37713;53.254;6.460;2023-03-12T05:06:31;0.20;99.90
51637;DHT22;37713;53.254;6.460;2023-03-12T05:08:57;0.00;99.90
51637;DHT22;37713;53.254;6.460;2023-03-12T05:11:23;0.00;99.90
51637;DHT22;37713;53.254;6.460;2023-03-12T05:13:48;0.50;99.90
51637;DHT22;37713;53.254;6.460;2023-03-12T05:16:15;0.00;99.90
51637;DHT22;37713;53.254;6.460;2023-03-12T05:18:42;0.30;99.90
51637;DHT22;37713;53.254;6.460;2023-03-12T05:21:13;0.00;99.90
51637;DHT22;37713;53.254;6.460;2023-03-12T05:23:39;0.00;99.90
51637;DHT22;37713;53.254;6.460;2023-03-12T05:26:26;0.00;99.90
51637;DHT22;37713;53.254;6.460;2023-03-12T05:28:52;0.10;99.90
51637;DHT22;37713;53.254;6.460;2023-03-12T05:31:19;0.30;99.90
51637;DHT22;37713;53.254;6.460;2023-03-12T05:33:46;0.10;99.90
51637;DHT22;37713;53.254;6.460;2023-03-12T05:36:13;0.00;99.90
51637;DHT22;37713;53.254;6.460;2023-03-12T05:38:39;0.20;99.90
51637;DHT22;37713;53.254;6.460;2023-03-12T05:41:05;0.00;99.90
51637;DHT22;37713;53.254;6.460;2023-03-12T05:43:31;0.00;99.90
51637;DHT22;37713;53.254;6.460;2023-03-12T05:46:03;0.00;99.90
51637;DHT22;37713;53.254;6.460;2023-03-12T05:48:29;0.00;99.90
51637;DHT22;37713;53.254;6.460;2023-03-12T05:50:56;0.00;99.90
51637;DHT22;37713;53.254;6.460;2023-03-12T05:53:22;0.00;99.90
51637;DHT22;37713;53.254;6.460;2023-03-12T05:55:48;0.40;99.90
51637;DHT22;37713;53.254;6.460;2023-03-12T05:58:15;0.10;99.90
51637;DHT22;37713;53.254;6.460;2023-03-12T06:00:41;0.10;99.90
51637;DHT22;37713;53.254;6.460;2023-03-12T06:03:09;0.10;99.90
51637;DHT22;37713;53.254;6.460;2023-03-12T06:05:35;0.10;99.90
51637;DHT22;37713;53.254;6.460;2023-03-12T06:08:02;0.10;99.90
51637;DHT22;37713;53.254;6.460;2023-03-12T06:10:28;0.60;99.90
51637;DHT22;37713;53.254;6.460;2023-03-12T06:12:54;0.20;99.90
51637;DHT22;37713;53.254;6.460;2023-03-12T06:15:20;0.20;99.90
51637;DHT22;37713;53.254;6.460;2023-03-12T06:17:46;0.60;99.90
51637;DHT22;37713;53.254;6.460;2023-03-12T06:20:12;0.30;99.90
51637;DHT22;37713;53.254;6.460;2023-03-12T06:22:38;0.30;99.90
51637;DHT22;37713;53.254;6.460;2023-03-12T06:25:05;0.40;99.90
51637;DHT22;37713;53.254;6.460;2023-03-12T06:27:31;0.30;99.90
51637;DHT22;37713;53.254;6.460;2023-03-12T06:29:57;0.30;99.90
51637;DHT22;37713;53.254;6.460;2023-03-12T06:32:23;0.30;99.90
51637;DHT22;37713;53.254;6.460;2023-03-12T06:34:49;0.30;99.90
51637;DHT22;37713;53.254;6.460;2023-03-12T06:37:14;0.50;99.90
51637;DHT22;37713;53.254;6.460;2023-03-12T06:39:40;0.30;99.90
51637;DHT22;37713;53.254;6.460;2023-03-12T06:42:06;0.40;99.90
51637;DHT22;37713;53.254;6.460;2023-03-12T06:44:32;0.40;99.90
51637;DHT22;37713;53.254;6.460;2023-03-12T06:46:58;0.40;99.90
51637;DHT22;37713;53.254;6.460;2023-03-12T06:49:24;0.40;99.90
51637;DHT22;37713;53.254;6.460;2023-03-12T06:51:52;0.50;99.90
51637;DHT22;37713;53.254;6.460;2023-03-12T06:54:20;0.90;99.90
51637;DHT22;37713;53.254;6.460;2023-03-12T06:56:46;0.50;99.90
51637;DHT22;37713;53.254;6.460;2023-03-12T06:59:11;0.60;99.90
51637;DHT22;37713;53.254;6.460;2023-03-12T07:01:37;0.60;99.90
51637;DHT22;37713;53.254;6.460;2023-03-12T07:04:03;1.10;99.90
51637;DHT22;37713;53.254;6.460;2023-03-12T07:06:29;0.60;99.90
51637;DHT22;37713;53.254;6.460;2023-03-12T07:08:54;0.60;99.90
51637;DHT22;37713;53.254;6.460;2023-03-12T07:11:20;0.70;99.90
51637;DHT22;37713;53.254;6.460;2023-03-12T07:13:46;0.70;99.90
51637;DHT22;37713;53.254;6.460;2023-03-12T07:16:12;0.70;99.90
51637;DHT22;37713;53.254;6.460;2023-03-12T07:18:38;0.70;99.90
51637;DHT22;37713;53.254;6.460;2023-03-12T07:21:04;0.70;99.90
51637;DHT22;37713;53.254;6.460;2023-03-12T07:23:30;0.70;99.90
51637;DHT22;37713;53.254;6.460;2023-03-12T07:25:55;0.80;99.90
51637;DHT22;37713;53.254;6.460;2023-03-12T07:28:21;0.70;99.90
51637;DHT22;37713;53.254;6.460;2023-03-12T07:30:47;0.70;99.90
51637;DHT22;37713;53.254;6.460;2023-03-12T07:33:19;0.70;99.90
51637;DHT22;37713;53.254;6.460;2023-03-12T07:35:46;0.80;99.90
51637;DHT22;37713;53.254;6.460;2023-03-12T07:38:12;0.80;99.90
51637;DHT22;37713;53.254;6.460;2023-03-12T07:40:38;0.90;99.90
51637;DHT22;37713;53.254;6.460;2023-03-12T07:43:05;0.80;99.90
51637;DHT22;37713;53.254;6.460;2023-03-12T07:45:39;0.80;99.90
51637;DHT22;37713;53.254;6.460;2023-03-12T07:48:06;0.80;99.90
51637;DHT22;37713;53.254;6.460;2023-03-12T07:50:33;0.80;99.90
51637;DHT22;37713;53.254;6.460;2023-03-12T07:52:59;0.80;99.90
51637;DHT22;37713;53.254;6.460;2023-03-12T07:55:24;0.80;99.90
51637;DHT22;37713;53.254;6.460;2023-03-12T07:57:50;1.00;99.90
51637;DHT22;37713;53.254;6.460;2023-03-12T08:00:16;0.80;99.90
51637;DHT22;37713;53.254;6.460;2023-03-12T08:02:42;0.80;99.90
51637;DHT22;37713;53.254;6.460;2023-03-12T08:05:08;0.80;99.90
51637;DHT22;37713;53.254;6.460;2023-03-12T08:07:35;0.80;99.90
51637;DHT22;37713;53.254;6.460;2023-03-12T08:10:02;0.90;99.90
51637;DHT22;37713;53.254;6.460;2023-03-12T08:12:28;0.90;99.90
51637;DHT22;37713;53.254;6.460;2023-03-12T08:14:54;1.00;99.90
51637;DHT22;37713;53.254;6.460;2023-03-12T08:17:20;0.90;99.90
51637;DHT22;37713;53.254;6.460;2023-03-12T08:19:46;0.90;99.90
51637;DHT22;37713;53.254;6.460;2023-03-12T08:22:11;0.90;99.90
51637;DHT22;37713;53.254;6.460;2023-03-12T08:24:37;0.90;99.90
51637;DHT22;37713;53.254;6.460;2023-03-12T08:27:03;0.90;99.90
51637;DHT22;37713;53.254;6.460;2023-03-12T08:29:29;0.90;99.90
51637;DHT22;37713;53.254;6.460;2023-03-12T08:31:55;0.90;99.90
51637;DHT22;37713;53.254;6.460;2023-03-12T08:34:21;1.00;99.90
51637;DHT22;37713;53.254;6.460;2023-03-12T08:36:46;1.10;99.90
51637;DHT22;37713;53.254;6.460;2023-03-12T08:39:12;1.10;99.90
51637;DHT22;37713;53.254;6.460;2023-03-12T08:41:38;1.20;99.90
51637;DHT22;37713;53.254;6.460;2023-03-12T08:44:04;1.20;99.90
51637;DHT22;37713;53.254;6.460;2023-03-12T08:46:30;1.20;99.90
51637;DHT22;37713;53.254;6.460;2023-03-12T08:48:55;1.20;99.90
51637;DHT22;37713;53.254;6.460;2023-03-12T08:51:21;1.30;99.90
51637;DHT22;37713;53.254;6.460;2023-03-12T08:53:47;1.30;99.90
51637;DHT22;37713;53.254;6.460;2023-03-12T08:56:13;1.30;99.90
51637;DHT22;37713;53.254;6.460;2023-03-12T08:58:38;2.10;99.90
51637;DHT22;37713;53.254;6.460;2023-03-12T09:01:09;1.40;99.90
51637;DHT22;37713;53.254;6.460;2023-03-12T09:03:35;1.40;99.90
51637;DHT22;37713;53.254;6.460;2023-03-12T09:06:07;1.50;99.90
51637;DHT22;37713;53.254;6.460;2023-03-12T09:08:38;1.40;99.90
51637;DHT22;37713;53.254;6.460;2023-03-12T09:11:04;1.40;99.90
51637;DHT22;37713;53.254;6.460;2023-03-12T09:13:30;1.40;99.90
51637;DHT22;37713;53.254;6.460;2023-03-12T09:16:02;1.40;99.90
51637;DHT22;37713;53.254;6.460;2023-03-12T09:18:29;1.40;99.90
51637;DHT22;37713;53.254;6.460;2023-03-12T09:20:55;1.40;99.90
51637;DHT22;37713;53.254;6.460;2023-03-12T09:23:21;1.40;99.90
51637;DHT22;37713;53.254;6.460;2023-03-12T09:25:48;1.30;99.90
51637;DHT22;37713;53.254;6.460;2023-03-12T09:28:14;1.40;99.90
51637;DHT22;37713;53.254;6.460;2023-03-12T09:30:40;1.40;99.90
51637;DHT22;37713;53.254;6.460;2023-03-12T09:33:06;1.40;99.90
51637;DHT22;37713;53.254;6.460;2023-03-12T09:35:32;1.30;99.90
51637;DHT22;37713;53.254;6.460;2023-03-12T09:37:58;1.30;99.90
51637;DHT22;37713;53.254;6.460;2023-03-12T09:40:26;1.30;99.90
51637;DHT22;37713;53.254;6.460;2023-03-12T09:43:26;1.20;99.90
51637;DHT22;37713;53.254;6.460;2023-03-12T09:45:57;1.30;99.90
51637;DHT22;37713;53.254;6.460;2023-03-12T09:48:33;1.30;99.90
51637;DHT22;37713;53.254;6.460;2023-03-12T09:51:13;1.30;99.90
51637;DHT22;37713;53.254;6.460;2023-03-12T09:53:44;1.30;99.90
51637;DHT22;37713;53.254;6.460;2023-03-12T09:56:19;1.40;99.90
51637;DHT22;37713;53.254;6.460;2023-03-12T09:58:46;1.40;99.90
51637;DHT22;37713;53.254;6.460;2023-03-12T10:07:01;1.50;99.90
51637;DHT22;37713;53.254;6.460;2023-03-12T10:15:26;1.50;99.90
51637;DHT22;37713;53.254;6.460;2023-03-12T10:18:33;1.60;99.90
51637;DHT22;37713;53.254;6.460;2023-03-12T10:21:34;1.70;99.90
51637;DHT22;37713;53.254;6.460;2023-03-12T10:26:56;1.80;99.90
51637;DHT22;37713;53.254;6.460;2023-03-12T10:29:27;1.90;99.90
51637;DHT22;37713;53.254;6.460;2023-03-12T10:37:35;2.00;99.90
51637;DHT22;37713;53.254;6.460;2023-03-12T10:40:03;2.00;99.90
51637;DHT22;37713;53.254;6.460;2023-03-12T10:42:31;2.00;99.90
51637;DHT22;37713;53.254;6.460;2023-03-12T10:47:37;2.10;99.90
51637;DHT22;37713;53.254;6.460;2023-03-12T10:52:44;2.10;99.90
51637;DHT22;37713;53.254;6.460;2023-03-12T10:55:31;2.20;99.90
51637;DHT22;37713;53.254;6.460;2023-03-12T10:57:56;2.20;99.90
51637;DHT22;37713;53.254;6.460;2023-03-12T11:00:25;2.20;99.90
51637;DHT22;37713;53.254;6.460;2023-03-12T11:03:20;2.30;99.90
51637;DHT22;37713;53.254;6.460;2023-03-12T11:08:28;2.30;99.90
51637;DHT22;37713;53.254;6.460;2023-03-12T11:10:57;2.30;99.90
51637;DHT22;37713;53.254;6.460;2023-03-12T11:13:32;2.40;99.90
51637;DHT22;37713;53.254;6.460;2023-03-12T11:16:23;2.40;99.90
51637;DHT22;37713;53.254;6.460;2023-03-12T11:18:59;2.50;99.90
51637;DHT22;37713;53.254;6.460;2023-03-12T11:21:27;2.60;99.90
51637;DHT22;37713;53.254;6.460;2023-03-12T11:26:31;2.80;99.90
51637;DHT22;37713;53.254;6.460;2023-03-12T11:29:02;2.80;99.90
51637;DHT22;37713;53.254;6.460;2023-03-12T11:31:40;2.80;99.90
51637;DHT22;37713;53.254;6.460;2023-03-12T11:34:17;2.90;99.90
51637;DHT22;37713;53.254;6.460;2023-03-12T11:36:58;3.00;99.90
51637;DHT22;37713;53.254;6.460;2023-03-12T11:45:21;3.10;99.90
51637;DHT22;37713;53.254;6.460;2023-03-12T11:48:06;3.10;99.90
51637;DHT22;37713;53.254;6.460;2023-03-12T11:59:11;3.40;99.90
51637;DHT22;37713;53.254;6.460;2023-03-12T12:01:51;3.50;99.90
51637;DHT22;37713;53.254;6.460;2023-03-12T12:10:40;3.90;99.90
51637;DHT22;37713;53.254;6.460;2023-03-12T12:13:25;3.90;99.90
51637;DHT22;37713;53.254;6.460;2023-03-12T12:19:07;4.10;99.90
51637;DHT22;37713;53.254;6.460;2023-03-12T12:27:20;4.70;99.90
51637;DHT22;37713;53.254;6.460;2023-03-12T12:33:08;4.90;99.90
51637;DHT22;37713;53.254;6.460;2023-03-12T12:35:40;5.10;99.90
51637;DHT22;37713;53.254;6.460;2023-03-12T12:38:29;5.10;99.90
51637;DHT22;37713;53.254;6.460;2023-03-12T12:41:10;5.20;99.90
51637;DHT22;37713;53.254;6.460;2023-03-12T12:43:48;5.30;99.90
51637;DHT22;37713;53.254;6.460;2023-03-12T12:46:17;5.40;99.90
51637;DHT22;37713;53.254;6.460;2023-03-12T12:49:00;5.60;99.90
51637;DHT22;37713;53.254;6.460;2023-03-12T12:51:37;5.80;99.90
51637;DHT22;37713;53.254;6.460;2023-03-12T12:56:56;6.10;99.90
51637;DHT22;37713;53.254;6.460;2023-03-12T12:59:30;6.30;99.90
51637;DHT22;37713;53.254;6.460;2023-03-12T13:02:00;6.40;99.90
51637;DHT22;37713;53.254;6.460;2023-03-12T13:04:33;6.50;99.90
51637;DHT22;37713;53.254;6.460;2023-03-12T13:09:48;6.60;99.90
51637;DHT22;37713;53.254;6.460;2023-03-12T13:12:33;6.60;99.90
51637;DHT22;37713;53.254;6.460;2023-03-12T13:15:31;6.70;99.90
51637;DHT22;37713;53.254;6.460;2023-03-12T13:20:17;6.40;99.90
51637;DHT22;37713;53.254;6.460;2023-03-12T13:30:56;7.30;99.90
51637;DHT22;37713;53.254;6.460;2023-03-12T13:33:43;7.30;99.90
51637;DHT22;37713;53.254;6.460;2023-03-12T13:39:17;7.40;99.90
51637;DHT22;37713;53.254;6.460;2023-03-12T13:41:47;7.50;99.90
51637;DHT22;37713;53.254;6.460;2023-03-12T13:50:00;7.60;99.90
51637;DHT22;37713;53.254;6.460;2023-03-12T13:52:44;7.60;99.90
51637;DHT22;37713;53.254;6.460;2023-03-12T13:55:19;7.70;99.90
51637;DHT22;37713;53.254;6.460;2023-03-12T14:00:50;7.70;99.90
51637;DHT22;37713;53.254;6.460;2023-03-12T14:03:40;7.90;99.90
51637;DHT22;37713;53.254;6.460;2023-03-12T14:06:15;7.90;99.90
51637;DHT22;37713;53.254;6.460;2023-03-12T14:11:56;8.20;99.90
51637;DHT22;37713;53.254;6.460;2023-03-12T14:17:00;8.40;99.90
51637;DHT22;37713;53.254;6.460;2023-03-12T14:19:29;8.50;99.90
51637;DHT22;37713;53.254;6.460;2023-03-12T14:22:00;8.60;99.90
51637;DHT22;37713;53.254;6.460;2023-03-12T14:24:35;8.60;99.90
51637;DHT22;37713;53.254;6.460;2023-03-12T14:27:05;8.70;99.90
51637;DHT22;37713;53.254;6.460;2023-03-12T14:32:11;8.70;99.90
51637;DHT22;37713;53.254;6.460;2023-03-12T14:34:41;8.80;99.90
51637;DHT22;37713;53.254;6.460;2023-03-12T14:37:41;8.80;99.90
51637;DHT22;37713;53.254;6.460;2023-03-12T14:40:39;8.80;99.90
51637;DHT22;37713;53.254;6.460;2023-03-12T14:43:20;8.90;99.90
51637;DHT22;37713;53.254;6.460;2023-03-12T14:45:49;8.90;99.90
51637;DHT22;37713;53.254;6.460;2023-03-12T14:48:20;8.90;99.90
51637;DHT22;37713;53.254;6.460;2023-03-12T14:50:46;8.90;99.90
51637;DHT22;37713;53.254;6.460;2023-03-12T14:53:31;8.90;99.90
51637;DHT22;37713;53.254;6.460;2023-03-12T14:58:45;8.80;99.90
51637;DHT22;37713;53.254;6.460;2023-03-12T15:01:15;8.80;99.90
51637;DHT22;37713;53.254;6.460;2023-03-12T15:03:48;8.80;99.90
51637;DHT22;37713;53.254;6.460;2023-03-12T15:06:32;8.70;99.90
51637;DHT22;37713;53.254;6.460;2023-03-12T15:09:00;8.80;99.90
51637;DHT22;37713;53.254;6.460;2023-03-12T15:11:30;8.80;99.90
51637;DHT22;37713;53.254;6.460;2023-03-12T15:14:03;8.80;99.90
51637;DHT22;37713;53.254;6.460;2023-03-12T15:16:29;8.80;99.90
51637;DHT22;37713;53.254;6.460;2023-03-12T15:18:56;8.80;99.90
51637;DHT22;37713;53.254;6.460;2023-03-12T15:21:23;8.80;99.90
51637;DHT22;37713;53.254;6.460;2023-03-12T15:23:49;8.80;99.90
51637;DHT22;37713;53.254;6.460;2023-03-12T15:26:29;8.80;99.90
51637;DHT22;37713;53.254;6.460;2023-03-12T15:29:04;8.80;99.90
51637;DHT22;37713;53.254;6.460;2023-03-12T15:31:45;8.80;99.90
51637;DHT22;37713;53.254;6.460;2023-03-12T15:34:12;8.80;99.90
51637;DHT22;37713;53.254;6.460;2023-03-12T15:36:46;8.80;99.90
51637;DHT22;37713;53.254;6.460;2023-03-12T15:39:32;8.80;99.90
51637;DHT22;37713;53.254;6.460;2023-03-12T15:42:18;8.80;99.90
51637;DHT22;37713;53.254;6.460;2023-03-12T15:44:51;8.80;99.90
51637;DHT22;37713;53.254;6.460;2023-03-12T15:47:22;8.80;99.90
51637;DHT22;37713;53.254;6.460;2023-03-12T15:50:02;8.70;99.90
51637;DHT22;37713;53.254;6.460;2023-03-12T15:52:32;8.70;99.90
51637;DHT22;37713;53.254;6.460;2023-03-12T15:57:34;8.70;99.90
51637;DHT22;37713;53.254;6.460;2023-03-12T16:02:56;8.70;99.90
51637;DHT22;37713;53.254;6.460;2023-03-12T16:05:34;8.80;99.90
51637;DHT22;37713;53.254;6.460;2023-03-12T16:08:43;8.80;99.90
51637;DHT22;37713;53.254;6.460;2023-03-12T16:11:16;8.90;99.90
51637;DHT22;37713;53.254;6.460;2023-03-12T16:13:44;9.00;99.90
51637;DHT22;37713;53.254;6.460;2023-03-12T16:16:12;9.00;99.90
51637;DHT22;37713;53.254;6.460;2023-03-12T16:18:39;9.00;99.90
51637;DHT22;37713;53.254;6.460;2023-03-12T16:21:05;8.90;99.90
51637;DHT22;37713;53.254;6.460;2023-03-12T16:23:31;8.90;99.90
51637;DHT22;37713;53.254;6.460;2023-03-12T16:25:58;8.90;99.90
51637;DHT22;37713;53.254;6.460;2023-03-12T16:28:24;8.80;99.90
51637;DHT22;37713;53.254;6.460;2023-03-12T16:30:51;8.80;99.90
51637;DHT22;37713;53.254;6.460;2023-03-12T16:33:20;8.70;99.90
51637;DHT22;37713;53.254;6.460;2023-03-12T16:35:47;8.50;99.90
51637;DHT22;37713;53.254;6.460;2023-03-12T16:38:13;8.50;99.90
51637;DHT22;37713;53.254;6.460;2023-03-12T16:40:45;8.40;99.90
51637;DHT22;37713;53.254;6.460;2023-03-12T16:43:18;8.40;99.90
51637;DHT22;37713;53.254;6.460;2023-03-12T16:45:45;8.30;99.90
51637;DHT22;37713;53.254;6.460;2023-03-12T16:48:14;8.20;99.90
51637;DHT22;37713;53.254;6.460;2023-03-12T16:50:48;8.20;99.90
51637;DHT22;37713;53.254;6.460;2023-03-12T16:53:15;8.10;99.90
51637;DHT22;37713;53.254;6.460;2023-03-12T16:56:17;8.10;99.90
51637;DHT22;37713;53.254;6.460;2023-03-12T16:58:44;8.00;99.90
51637;DHT22;37713;53.254;6.460;2023-03-12T17:01:13;7.90;99.90
51637;DHT22;37713;53.254;6.460;2023-03-12T17:03:40;7.80;99.90
51637;DHT22;37713;53.254;6.460;2023-03-12T17:06:20;7.80;99.90
51637;DHT22;37713;53.254;6.460;2023-03-12T17:08:47;7.70;99.90
51637;DHT22;37713;53.254;6.460;2023-03-12T17:11:22;7.70;99.90
51637;DHT22;37713;53.254;6.460;2023-03-12T17:13:57;7.60;99.90
51637;DHT22;37713;53.254;6.460;2023-03-12T17:16:23;7.60;99.90
51637;DHT22;37713;53.254;6.460;2023-03-12T17:18:49;7.50;99.90
51637;DHT22;37713;53.254;6.460;2023-03-12T17:21:17;7.50;99.90
51637;DHT22;37713;53.254;6.460;2023-03-12T17:23:45;7.50;99.90
51637;DHT22;37713;53.254;6.460;2023-03-12T17:26:12;7.40;99.90
51637;DHT22;37713;53.254;6.460;2023-03-12T17:28:38;7.40;99.90
51637;DHT22;37713;53.254;6.460;2023-03-12T17:31:04;7.40;99.90
51637;DHT22;37713;53.254;6.460;2023-03-12T17:33:29;7.40;99.90
51637;DHT22;37713;53.254;6.460;2023-03-12T17:36:01;7.30;99.90
51637;DHT22;37713;53.254;6.460;2023-03-12T17:38:27;7.40;99.90
51637;DHT22;37713;53.254;6.460;2023-03-12T17:40:53;7.30;99.90
51637;DHT22;37713;53.254;6.460;2023-03-12T17:43:19;7.30;99.90
51637;DHT22;37713;53.254;6.460;2023-03-12T17:45:45;7.30;99.90
51637;DHT22;37713;53.254;6.460;2023-03-12T17:48:10;7.20;99.90
51637;DHT22;37713;53.254;6.460;2023-03-12T17:50:36;7.20;99.90
51637;DHT22;37713;53.254;6.460;2023-03-12T17:53:02;7.20;99.90